Holywell, United Kingdom
Current Conditions -  °F | °C
As of 9:50 AM on Tuesday 21 Oct 2014 (Local Time) from EGNR Reporting Station
Scattered Clouds Scattered Clouds  
Wind Chill: 52°   Ceiling: Unl
Heat Index: 52°   Visibility: 6mi
Dew Point: 43°   Wind: 20mph
Humidity: 71%   Direction: 280°W
Pressure: 29.56"   Gusts: NA
Location:  53.27°N, 3.22°W
Report Text: EGNR 210850Z 28017KT 9999 FEW015 SCT035 11/06 Q1001 RESHRA
Loading
Personal Weather Stations






























Interactive Weather Map
Tropical Storm Tracking
New forecast layout! Learn more

10-Day Weather Forecast

Advertisements
Track Severe Weather on mobile